Time;durP1;ratioP1;P1;durP2;ratioP2;P2;SDS_P1;SDS_P2;PMS_P1;PMS_P2;Temp;Humidity;BMP_temperature;BMP_pressure;BME280_temperature;BME280_humidity;BME280_pressure;Samples;Min_cycle;Max_cycle;Signal;HPM_P1;HPM_P2
2022/12/08 00:00:45;;;;;;;8.18;7.88;;;2.20;99.90;;;;;;5013181;28;20075;-74
2022/12/08 00:03:11;;;;;;;7.78;7.47;;;2.20;99.90;;;;;;5013041;28;20034;-74
2022/12/08 00:11:04;;;;;;;8.40;8.10;;;2.30;99.90;;;;;;5013096;28;20029;-74
2022/12/08 00:13:30;;;;;;;7.47;7.22;;;2.30;99.90;;;;;;5013116;28;20026;-74
2022/12/08 00:15:59;;;;;;;7.18;6.97;;;2.30;99.90;;;;;;5011550;28;20041;-74
2022/12/08 00:18:25;;;;;;;7.85;7.55;;;2.30;99.90;;;;;;5012002;28;20587;-74
2022/12/08 00:20:55;;;;;;;7.93;7.63;;;2.30;99.90;;;;;;5012925;28;20108;-74
2022/12/08 00:23:21;;;;;;;8.10;7.80;;;2.30;99.90;;;;;;5012808;28;20030;-74
2022/12/08 00:25:46;;;;;;;8.23;7.93;;;2.30;99.90;;;;;;5012714;28;20091;-74
2022/12/08 00:28:12;;;;;;;6.72;6.53;;;2.30;99.90;;;;;;5011572;28;20033;-74
2022/12/08 00:30:40;;;;;;;7.10;6.90;;;2.30;99.90;;;;;;5012862;28;20026;-74
2022/12/08 00:33:05;;;;;;;8.13;7.82;;;2.30;99.90;;;;;;5011360;28;20399;-74
2022/12/08 00:35:31;;;;;;;11.98;11.38;;;2.40;99.90;;;;;;5012511;28;20026;-74
2022/12/08 00:37:56;;;;;;;6.50;6.30;;;2.40;99.90;;;;;;5011052;28;20387;-75
2022/12/08 00:40:22;;;;;;;6.78;6.57;;;2.30;99.90;;;;;;5011196;28;20553;-74
2022/12/08 00:42:47;;;;;;;9.05;8.75;;;2.30;99.90;;;;;;5012317;28;20029;-73
2022/12/08 00:45:13;;;;;;;9.02;8.65;;;2.30;99.90;;;;;;5012427;28;20605;-74
2022/12/08 00:47:38;;;;;;;6.85;6.65;;;2.20;99.90;;;;;;5012228;28;20369;-75
2022/12/08 00:50:05;;;;;;;7.65;7.35;;;2.30;99.90;;;;;;5012463;28;20480;-74
2022/12/08 00:52:30;;;;;;;6.40;6.20;;;2.30;99.90;;;;;;5012215;28;20037;-75
2022/12/08 00:54:56;;;;;;;8.38;8.07;;;2.30;99.90;;;;;;5010847;28;20026;-73
2022/12/08 00:57:21;;;;;;;7.50;7.25;;;2.20;99.90;;;;;;5012007;28;20033;-75
2022/12/08 00:59:47;;;;;;;7.32;7.13;;;2.30;99.90;;;;;;5012400;28;20034;-74
2022/12/08 01:02:12;;;;;;;7.90;7.60;;;2.30;99.90;;;;;;5011973;28;20395;-74
2022/12/08 01:04:38;;;;;;;8.02;7.72;;;2.30;99.90;;;;;;5010872;28;20021;-75
2022/12/08 01:07:03;;;;;;;7.88;7.57;;;2.30;99.90;;;;;;5010875;28;20055;-75
2022/12/08 01:09:29;;;;;;;7.18;6.97;;;2.20;99.90;;;;;;5012358;28;20030;-74
2022/12/08 01:11:55;;;;;;;8.82;8.48;;;2.20;99.90;;;;;;5012075;28;20026;-74
2022/12/08 01:14:20;;;;;;;8.77;8.48;;;2.20;99.90;;;;;;5011838;28;20177;-73
2022/12/08 01:16:46;;;;;;;9.10;8.80;;;2.20;99.90;;;;;;5011981;28;20018;-75
2022/12/08 01:19:13;;;;;;;7.95;7.65;;;2.10;99.90;;;;;;5010638;28;20026;-75
2022/12/08 01:21:40;;;;;;;9.68;9.27;;;2.20;99.90;;;;;;5010647;28;20026;-75
2022/12/08 01:24:06;;;;;;;6.45;6.25;;;2.10;99.90;;;;;;5011827;28;20025;-75
2022/12/08 01:26:31;;;;;;;10.48;10.07;;;2.10;99.90;;;;;;5011693;28;20097;-74
2022/12/08 01:28:58;;;;;;;6.93;6.72;;;2.10;99.90;;;;;;5011660;28;20453;-74
2022/12/08 01:31:23;;;;;;;8.40;8.00;;;2.10;99.90;;;;;;5011712;28;20061;-74
2022/12/08 01:33:49;;;;;;;8.35;8.05;;;2.10;99.90;;;;;;5010560;28;20058;-74
2022/12/08 01:36:24;;;;;;;7.32;7.10;;;2.10;99.90;;;;;;5011653;28;20033;-75
2022/12/08 01:38:50;;;;;;;7.18;6.97;;;2.10;99.90;;;;;;5011249;28;20030;-75
2022/12/08 01:41:18;;;;;;;7.75;7.45;;;2.10;99.90;;;;;;5011675;28;20025;-76
2022/12/08 01:43:54;;;;;;;8.65;8.35;;;2.20;99.90;;;;;;5011695;28;20037;-75
2022/12/08 01:46:19;;;;;;;13.38;12.63;;;2.20;99.90;;;;;;5011688;28;20026;-75
2022/12/08 01:48:45;;;;;;;7.97;7.68;;;2.20;99.90;;;;;;5011489;28;20383;-75
2022/12/08 01:51:11;;;;;;;7.20;7.00;;;2.20;99.90;;;;;;5011738;28;20487;-75
2022/12/08 01:53:37;;;;;;;9.02;8.73;;;2.20;99.90;;;;;;5011409;28;20034;-75
2022/12/08 01:56:11;;;;;;;8.45;8.15;;;2.30;99.90;;;;;;5018598;28;20229;-75
2022/12/08 01:58:40;;;;;;;8.25;7.95;;;2.30;99.90;;;;;;5031017;28;20490;-75
2022/12/08 02:01:06;;;;;;;6.78;6.57;;;2.20;99.90;;;;;;5028665;28;20033;-75
2022/12/08 02:03:58;;;;;;;7.10;6.90;;;2.20;99.90;;;;;;5011696;28;20032;-75
2022/12/08 02:06:27;;;;;;;8.57;8.27;;;2.10;99.90;;;;;;5010315;28;20033;-75
2022/12/08 02:08:54;;;;;;;9.02;8.52;;;2.10;99.90;;;;;;5010052;28;20060;-75
2022/12/08 02:11:20;;;;;;;8.25;7.95;;;2.10;99.90;;;;;;5011567;28;20018;-75
2022/12/08 02:13:46;;;;;;;8.75;8.32;;;2.10;99.90;;;;;;5011468;28;20391;-75
2022/12/08 02:16:37;;;;;;;7.88;7.57;;;2.10;99.90;;;;;;5011184;28;20045;-74
2022/12/08 02:19:35;;;;;;;10.20;9.80;;;2.00;99.90;;;;;;5001234;28;20057;-73
2022/12/08 02:22:11;;;;;;;9.35;8.85;;;2.00;99.90;;;;;;5011301;28;20026;-73
2022/12/08 02:24:43;;;;;;;9.65;9.35;;;2.00;99.90;;;;;;5011217;28;20110;-74
2022/12/08 02:27:36;;;;;;;8.90;8.60;;;2.00;99.90;;;;;;5011182;28;20030;-73
2022/12/08 02:30:07;;;;;;;7.57;7.32;;;2.10;99.90;;;;;;5006163;28;20030;-74
2022/12/08 02:33:04;;;;;;;8.05;7.75;;;2.00;99.90;;;;;;5011621;28;20042;-74
2022/12/08 02:35:49;;;;;;;7.70;7.43;;;2.00;99.90;;;;;;5011268;28;20105;-74
2022/12/08 02:38:24;;;;;;;8.90;8.60;;;2.00;99.90;;;;;;5010000;28;20062;-74
2022/12/08 02:41:15;;;;;;;9.10;8.80;;;2.00;99.90;;;;;;5012634;28;20022;-74
2022/12/08 02:43:46;;;;;;;10.77;10.25;;;2.00;99.90;;;;;;4995451;28;20147;-74
2022/12/08 02:46:18;;;;;;;7.88;7.57;;;2.00;99.90;;;;;;5013287;28;20061;-74
2022/12/08 02:48:44;;;;;;;8.70;8.35;;;2.00;99.90;;;;;;5013070;28;20026;-74
2022/12/08 02:51:09;;;;;;;8.20;7.90;;;2.00;99.90;;;;;;5014616;28;20037;-74
2022/12/08 02:53:35;;;;;;;8.10;7.80;;;1.90;99.90;;;;;;5014314;28;20026;-74
2022/12/08 02:56:01;;;;;;;9.88;9.38;;;2.00;99.90;;;;;;5014441;28;20026;-75
2022/12/08 02:58:26;;;;;;;8.60;8.30;;;1.90;99.90;;;;;;5014211;28;20479;-73
2022/12/08 03:01:21;;;;;;;8.70;8.40;;;1.90;99.90;;;;;;5013013;28;20029;-73
2022/12/08 03:04:04;;;;;;;9.15;8.85;;;1.90;99.90;;;;;;5013018;28;20373;-74
2022/12/08 03:06:45;;;;;;;8.57;8.27;;;1.90;99.90;;;;;;5013045;28;20099;-74
2022/12/08 03:09:41;;;;;;;9.85;9.23;;;1.90;99.90;;;;;;5014431;28;20036;-74
2022/12/08 03:12:34;;;;;;;10.00;9.50;;;1.90;99.90;;;;;;5014084;28;20508;-74
2022/12/08 03:15:08;;;;;;;8.00;7.70;;;1.90;99.90;;;;;;5012929;28;20061;-74
2022/12/08 03:17:37;;;;;;;8.98;8.68;;;2.00;99.90;;;;;;5012638;28;20022;-73
2022/12/08 03:20:07;;;;;;;8.43;8.13;;;1.90;99.90;;;;;;5014086;28;20037;-73
2022/12/08 03:22:33;;;;;;;8.38;8.05;;;1.90;99.90;;;;;;5014028;28;20033;-73
2022/12/08 03:24:59;;;;;;;8.60;8.30;;;1.90;99.90;;;;;;5013813;28;20034;-73
2022/12/08 03:27:28;;;;;;;8.70;8.32;;;1.90;99.90;;;;;;5013850;28;20030;-72
2022/12/08 03:29:56;;;;;;;7.97;7.68;;;1.90;99.90;;;;;;5013837;28;20018;-72
2022/12/08 03:32:36;;;;;;;8.20;7.90;;;1.90;99.90;;;;;;5013759;28;20060;-72
2022/12/08 03:35:05;;;;;;;8.82;8.52;;;2.00;99.90;;;;;;5013719;28;20030;-73
2022/12/08 03:37:34;;;;;;;7.30;7.10;;;2.00;99.90;;;;;;5012002;28;20034;-73
2022/12/08 03:40:00;;;;;;;7.53;7.28;;;1.90;99.90;;;;;;5013753;28;20022;-73
2022/12/08 03:42:25;;;;;;;8.45;8.05;;;2.00;99.90;;;;;;5013495;28;20490;-73
2022/12/08 03:44:51;;;;;;;8.10;7.80;;;1.90;99.90;;;;;;5012380;28;20013;-74
2022/12/08 03:47:16;;;;;;;8.25;7.95;;;1.80;99.90;;;;;;5013351;28;20028;-74
2022/12/08 03:49:42;;;;;;;7.95;7.55;;;1.90;99.90;;;;;;5013484;28;20047;-73
2022/12/08 03:52:07;;;;;;;12.65;11.80;;;1.90;99.90;;;;;;5012351;28;20041;-73
2022/12/08 03:54:33;;;;;;;8.75;8.45;;;1.90;99.90;;;;;;5013383;28;20050;-73
2022/12/08 03:56:58;;;;;;;7.90;7.60;;;2.00;99.90;;;;;;5011887;28;20053;-73
2022/12/08 03:59:24;;;;;;;7.05;6.85;;;1.90;99.90;;;;;;5021736;28;20030;-73
2022/12/08 04:01:49;;;;;;;9.07;8.77;;;1.90;99.90;;;;;;5018784;28;20029;-73
2022/12/08 04:04:15;;;;;;;8.35;8.05;;;1.90;99.90;;;;;;5023759;28;20041;-74
2022/12/08 04:06:40;;;;;;;10.90;10.27;;;1.90;99.90;;;;;;5014207;28;20025;-74
2022/12/08 04:09:06;;;;;;;11.15;10.52;;;2.00;99.90;;;;;;5025019;28;20030;-74
2022/12/08 04:11:31;;;;;;;9.05;8.75;;;1.90;99.90;;;;;;5026489;28;20021;-74
2022/12/08 04:13:57;;;;;;;11.23;10.73;;;1.90;99.90;;;;;;5011957;28;20037;-75
2022/12/08 04:16:25;;;;;;;9.30;8.90;;;1.90;99.90;;;;;;5027524;28;20037;-73
2022/12/08 04:18:51;;;;;;;8.52;8.23;;;1.90;99.90;;;;;;5031339;28;20036;-74
2022/12/08 04:21:16;;;;;;;8.50;8.20;;;1.90;99.90;;;;;;5018107;28;20022;-74
2022/12/08 04:23:43;;;;;;;8.48;8.18;;;2.00;99.90;;;;;;5020826;28;20156;-73
2022/12/08 04:26:08;;;;;;;8.00;7.70;;;1.90;99.90;;;;;;5032544;28;20052;-74
2022/12/08 04:28:34;;;;;;;8.70;8.40;;;1.90;99.90;;;;;;5032390;28;20451;-74
2022/12/08 04:31:00;;;;;;;7.65;7.35;;;1.90;99.90;;;;;;5016894;28;20022;-76
2022/12/08 04:33:26;;;;;;;8.73;8.43;;;1.90;99.90;;;;;;5020362;28;20052;-74
2022/12/08 04:35:51;;;;;;;7.85;7.55;;;1.90;99.90;;;;;;5032319;28;20360;-75
2022/12/08 04:38:17;;;;;;;7.80;7.50;;;2.00;99.90;;;;;;5025105;28;20030;-74
2022/12/08 04:40:42;;;;;;;7.05;6.80;;;1.90;99.90;;;;;;5012562;28;20084;-74
2022/12/08 04:43:08;;;;;;;7.57;7.28;;;1.90;99.90;;;;;;5012625;28;20022;-74
2022/12/08 04:45:34;;;;;;;10.50;10.10;;;1.90;99.90;;;;;;5012522;28;20392;-73
2022/12/08 04:48:00;;;;;;;7.95;7.65;;;1.80;99.90;;;;;;5011145;28;20500;-75
2022/12/08 04:50:26;;;;;;;8.15;7.85;;;1.90;99.90;;;;;;5012448;28;20713;-75
2022/12/08 04:52:52;;;;;;;7.50;7.25;;;1.90;99.90;;;;;;5012498;28;20033;-74
2022/12/08 04:55:17;;;;;;;12.48;10.77;;;1.90;99.90;;;;;;5012297;28;20069;-74
2022/12/08 04:57:43;;;;;;;7.85;7.55;;;1.80;99.90;;;;;;5012160;28;20062;-74
2022/12/08 05:00:09;;;;;;;7.55;7.28;;;1.90;99.90;;;;;;5011064;28;20076;-75
2022/12/08 05:02:35;;;;;;;8.35;8.05;;;1.80;99.90;;;;;;5011935;28;20392;-74
2022/12/08 05:05:00;;;;;;;8.30;8.00;;;1.80;99.90;;;;;;5010565;28;20024;-74
2022/12/08 05:07:26;;;;;;;7.40;7.18;;;1.90;99.90;;;;;;5010800;28;20026;-75
2022/12/08 05:09:52;;;;;;;7.00;6.80;;;1.90;99.90;;;;;;5026033;28;20030;-75
2022/12/08 05:12:17;;;;;;;7.50;7.25;;;1.90;99.90;;;;;;5030630;28;20056;-75
2022/12/08 05:14:43;;;;;;;7.57;7.30;;;1.80;99.90;;;;;;5030247;28;20021;-74
2022/12/08 05:17:08;;;;;;;8.40;8.10;;;1.90;99.90;;;;;;5030394;28;20112;-75
2022/12/08 05:19:34;;;;;;;7.22;7.00;;;1.90;99.90;;;;;;5018119;28;20663;-73
2022/12/08 05:21:59;;;;;;;8.57;8.27;;;1.90;99.90;;;;;;5011080;28;20096;-74
2022/12/08 05:24:25;;;;;;;9.70;9.30;;;2.00;99.90;;;;;;5010536;28;20058;-74
2022/12/08 05:26:50;;;;;;;8.43;8.13;;;2.00;99.90;;;;;;5010617;28;20460;-74
2022/12/08 05:29:16;;;;;;;7.15;6.95;;;1.90;99.90;;;;;;5025080;28;20049;-76
2022/12/08 05:31:42;;;;;;;7.13;6.93;;;1.90;99.90;;;;;;5012069;28;20068;-74
2022/12/08 05:34:07;;;;;;;7.90;7.60;;;1.90;99.90;;;;;;5011930;28;20038;-73
2022/12/08 05:36:33;;;;;;;8.93;8.63;;;1.90;99.90;;;;;;5025141;28;20045;-74
2022/12/08 05:38:58;;;;;;;8.63;8.32;;;2.00;99.90;;;;;;5010481;28;20037;-74
2022/12/08 05:41:24;;;;;;;8.30;8.00;;;2.00;99.90;;;;;;5031241;28;20395;-74
2022/12/08 05:43:49;;;;;;;8.05;7.75;;;1.90;99.90;;;;;;5031483;28;20032;-74
2022/12/08 05:46:16;;;;;;;7.38;7.15;;;1.90;99.90;;;;;;5031380;28;20032;-74
2022/12/08 05:48:42;;;;;;;7.75;7.45;;;2.00;99.90;;;;;;5017136;28;20021;-74
2022/12/08 05:51:18;;;;;;;7.13;6.93;;;1.90;99.90;;;;;;5011598;28;20372;-74
2022/12/08 05:53:44;;;;;;;7.95;7.65;;;1.90;99.90;;;;;;5011581;28;20112;-73
2022/12/08 05:56:10;;;;;;;7.50;7.20;;;2.00;99.90;;;;;;5010424;28;20531;-74
2022/12/08 05:58:35;;;;;;;8.60;8.30;;;1.90;99.90;;;;;;5023701;28;20069;-75
2022/12/08 06:01:01;;;;;;;8.05;7.75;;;1.90;99.90;;;;;;5019561;28;20049;-75
2022/12/08 06:03:27;;;;;;;8.48;8.18;;;1.90;99.90;;;;;;5030361;28;20022;-74
2022/12/08 06:05:53;;;;;;;10.13;9.63;;;1.90;99.90;;;;;;5017767;28;20032;-75
2022/12/08 06:08:19;;;;;;;8.07;7.78;;;1.80;99.90;;;;;;5029862;28;20365;-74
2022/12/08 06:10:44;;;;;;;7.45;7.22;;;1.80;99.90;;;;;;5023994;28;20140;-73
2022/12/08 06:13:10;;;;;;;8.25;7.95;;;1.80;99.90;;;;;;5032350;28;20480;-74
2022/12/08 06:15:37;;;;;;;8.13;7.82;;;1.90;99.90;;;;;;5012500;28;20046;-75
2022/12/08 06:18:04;;;;;;;7.63;7.32;;;1.90;99.90;;;;;;5015011;28;20607;-74
2022/12/08 06:20:30;;;;;;;7.20;7.00;;;1.80;99.90;;;;;;5015317;28;20038;-74
2022/12/08 06:22:55;;;;;;;7.53;7.22;;;1.80;99.90;;;;;;5013831;28;20052;-74
2022/12/08 06:25:22;;;;;;;10.63;10.23;;;1.90;99.90;;;;;;5015207;28;20032;-74
2022/12/08 06:27:47;;;;;;;8.23;7.93;;;1.90;99.90;;;;;;5014855;28;20480;-75
2022/12/08 06:30:13;;;;;;;8.20;7.90;;;1.90;99.90;;;;;;5013847;28;20057;-74
2022/12/08 06:32:39;;;;;;;7.22;7.03;;;1.90;99.90;;;;;;5014897;28;20069;-74
2022/12/08 06:35:05;;;;;;;8.43;8.13;;;1.90;99.90;;;;;;5022565;28;20064;-74
2022/12/08 06:37:31;;;;;;;8.32;8.02;;;1.80;99.90;;;;;;5034339;28;20029;-74
2022/12/08 06:39:57;;;;;;;7.85;7.55;;;1.80;99.90;;;;;;5034684;28;20025;-74
2022/12/08 06:45:07;;;;;;;8.90;8.60;;;1.80;99.90;;;;;;5014829;28;20032;-74
2022/12/08 06:47:32;;;;;;;7.28;6.97;;;1.80;99.90;;;;;;5031484;28;20032;-75
2022/12/08 06:49:58;;;;;;;11.75;11.30;;;1.80;99.90;;;;;;5034494;28;20025;-75
2022/12/08 06:52:23;;;;;;;9.63;9.23;;;1.70;99.90;;;;;;5026606;28;20097;-75
2022/12/08 06:54:49;;;;;;;8.20;7.90;;;1.80;99.90;;;;;;5014432;28;20113;-76
2022/12/08 06:57:14;;;;;;;8.40;8.10;;;1.80;99.90;;;;;;5016019;28;20137;-74
2022/12/08 06:59:40;;;;;;;10.13;9.63;;;1.80;99.90;;;;;;5024373;28;20144;-75
2022/12/08 07:02:06;;;;;;;8.50;8.20;;;1.80;99.90;;;;;;5027550;28;20077;-75
2022/12/08 07:04:31;;;;;;;8.20;7.90;;;1.80;99.90;;;;;;5014261;28;20034;-74
2022/12/08 07:06:57;;;;;;;7.72;7.43;;;1.70;99.90;;;;;;5028711;28;20060;-74
2022/12/08 07:09:22;;;;;;;8.30;7.55;;;1.80;99.90;;;;;;5024380;28;20507;-74
2022/12/08 07:11:48;;;;;;;7.93;7.63;;;1.80;99.90;;;;;;5027364;28;20041;-75
2022/12/08 07:14:13;;;;;;;8.93;8.55;;;1.70;99.90;;;;;;5023946;28;20029;-75
2022/12/08 07:16:39;;;;;;;8.55;8.25;;;1.70;99.90;;;;;;5019092;28;20457;-75
2022/12/08 07:19:05;;;;;;;8.10;7.60;;;1.70;99.90;;;;;;5023762;28;20030;-75
2022/12/08 07:21:31;;;;;;;8.20;7.82;;;1.70;99.90;;;;;;5027243;28;20037;-75
2022/12/08 07:23:56;;;;;;;7.95;7.57;;;1.70;99.90;;;;;;5023628;28;20044;-75
2022/12/08 07:26:22;;;;;;;7.68;7.38;;;1.80;99.90;;;;;;5019064;28;20014;-75
2022/12/08 07:28:47;;;;;;;7.50;7.22;;;1.70;99.90;;;;;;5022092;28;20058;-75
2022/12/08 07:31:21;;;;;;;7.28;7.05;;;1.80;99.90;;;;;;5030196;28;20554;-75
2022/12/08 07:33:47;;;;;;;7.57;7.28;;;1.70;99.90;;;;;;5023144;28;20030;-75
2022/12/08 07:36:12;;;;;;;9.25;8.88;;;1.70;99.90;;;;;;5030509;28;20111;-75
2022/12/08 07:38:38;;;;;;;7.15;6.95;;;1.70;99.90;;;;;;5032332;28;20022;-74
2022/12/08 07:41:04;;;;;;;7.85;7.55;;;1.80;99.90;;;;;;5029078;28;20032;-72
2022/12/08 07:43:30;;;;;;;8.45;8.15;;;1.80;99.90;;;;;;5013656;28;20041;-74
2022/12/08 07:45:55;;;;;;;7.53;7.25;;;1.60;99.90;;;;;;5026917;28;20030;-74
2022/12/08 07:48:21;;;;;;;7.35;7.10;;;1.70;99.90;;;;;;5013434;28;20114;-74
2022/12/08 07:50:46;;;;;;;7.97;7.68;;;1.80;99.90;;;;;;5013727;28;20384;-74
2022/12/08 07:53:12;;;;;;;7.05;6.85;;;1.70;99.90;;;;;;5023266;28;20483;-73
2022/12/08 07:55:40;;;;;;;8.32;8.02;;;1.70;99.90;;;;;;5018407;28;20067;-74
2022/12/08 07:58:06;;;;;;;8.07;7.78;;;1.80;99.90;;;;;;5022417;28;20057;-74
2022/12/08 08:00:31;;;;;;;8.27;7.97;;;1.80;99.90;;;;;;5012159;28;20057;-73
2022/12/08 08:02:57;;;;;;;7.57;7.28;;;1.80;99.90;;;;;;5012030;28;20069;-74
2022/12/08 08:05:22;;;;;;;8.93;8.52;;;1.70;99.90;;;;;;5029042;28;20056;-73
2022/12/08 08:07:48;;;;;;;8.90;8.50;;;1.60;99.90;;;;;;5033020;28;20665;-73
2022/12/08 08:10:14;;;;;;;7.68;7.43;;;1.70;99.90;;;;;;5016457;28;20030;-74
2022/12/08 08:12:39;;;;;;;8.10;7.80;;;1.80;99.90;;;;;;5013199;28;20026;-74
2022/12/08 08:15:07;;;;;;;7.50;7.20;;;1.70;99.90;;;;;;5011696;28;20033;-74
2022/12/08 08:17:33;;;;;;;29.23;21.92;;;1.70;99.90;;;;;;5012718;28;20030;-73
2022/12/08 08:19:59;;;;;;;7.15;6.95;;;1.70;99.90;;;;;;5011837;28;20026;-74
2022/12/08 08:22:25;;;;;;;7.53;7.10;;;1.80;99.90;;;;;;5011664;28;20030;-73
2022/12/08 08:24:51;;;;;;;10.48;9.65;;;1.80;99.90;;;;;;5024747;28;20033;-74
2022/12/08 08:27:17;;;;;;;7.35;7.13;;;1.80;99.90;;;;;;5021399;28;20021;-73
2022/12/08 08:29:42;;;;;;;7.68;7.38;;;1.80;99.90;;;;;;5019237;28;20029;-74
2022/12/08 08:32:08;;;;;;;7.35;7.05;;;1.80;99.90;;;;;;5022378;28;20049;-73
2022/12/08 08:34:34;;;;;;;7.43;7.20;;;1.80;99.90;;;;;;5029347;28;20057;-74
2022/12/08 08:36:59;;;;;;;8.85;8.55;;;1.80;99.90;;;;;;5021787;28;20041;-73
2022/12/08 08:39:25;;;;;;;10.57;10.02;;;1.80;99.90;;;;;;5025304;28;20030;-74
2022/12/08 08:41:51;;;;;;;7.05;6.85;;;1.80;99.90;;;;;;5011004;28;20029;-74
2022/12/08 08:44:17;;;;;;;8.63;8.32;;;1.80;99.90;;;;;;5015720;28;20032;-74
2022/12/08 08:46:42;;;;;;;6.97;6.78;;;1.90;99.90;;;;;;5021116;28;20831;-74
2022/12/08 08:49:08;;;;;;;8.15;7.85;;;1.90;99.90;;;;;;5024976;28;20022;-74
2022/12/08 08:51:33;;;;;;;9.82;9.50;;;1.90;99.90;;;;;;5020815;28;20056;-74
2022/12/08 08:53:59;;;;;;;8.45;8.15;;;1.80;99.90;;;;;;5015808;28;20472;-74
2022/12/08 08:56:25;;;;;;;20.15;18.48;;;2.00;99.90;;;;;;5012281;28;20034;-74
2022/12/08 08:58:51;;;;;;;7.15;6.95;;;2.00;99.90;;;;;;5015257;28;20029;-74
2022/12/08 09:01:21;;;;;;;10.27;9.30;;;2.00;99.90;;;;;;5020723;28;20026;-73
2022/12/08 09:03:47;;;;;;;6.72;6.53;;;2.00;99.90;;;;;;5024027;28;20026;-74
2022/12/08 09:06:13;;;;;;;7.30;7.07;;;2.00;99.90;;;;;;5022701;28;20536;-73
2022/12/08 09:08:40;;;;;;;7.18;6.90;;;2.00;99.90;;;;;;5016506;28;20025;-73
2022/12/08 09:11:06;;;;;;;10.27;9.77;;;2.00;99.90;;;;;;5030406;28;20022;-73
2022/12/08 09:13:32;;;;;;;7.75;7.45;;;2.00;99.90;;;;;;5031668;28;20060;-73
2022/12/08 09:16:01;;;;;;;8.10;7.80;;;1.90;99.90;;;;;;5018772;28;20061;-73
2022/12/08 09:18:27;;;;;;;7.45;7.20;;;1.90;99.90;;;;;;5011218;28;20379;-73
2022/12/08 09:20:53;;;;;;;8.38;8.07;;;1.90;99.90;;;;;;5011923;28;20034;-73
2022/12/08 09:23:18;;;;;;;8.00;7.70;;;1.90;99.90;;;;;;5011577;28;20030;-73
2022/12/08 09:25:44;;;;;;;8.68;8.38;;;1.90;99.90;;;;;;5010449;28;20109;-73
2022/12/08 09:28:10;;;;;;;8.52;8.20;;;2.00;99.90;;;;;;5009892;28;20029;-73
2022/12/08 09:30:35;;;;;;;7.32;7.13;;;1.90;99.90;;;;;;5022609;28;20026;-74
2022/12/08 09:33:01;;;;;;;7.82;7.53;;;1.90;99.90;;;;;;5027556;28;20033;-73
2022/12/08 09:35:27;;;;;;;8.02;7.72;;;2.00;99.90;;;;;;5011647;28;20018;-73
2022/12/08 09:37:53;;;;;;;9.05;8.65;;;2.00;99.90;;;;;;5028285;28;20510;-73
2022/12/08 09:40:21;;;;;;;7.00;6.80;;;2.10;99.90;;;;;;5031524;28;20030;-72
2022/12/08 09:42:57;;;;;;;10.93;10.35;;;2.10;99.90;;;;;;5031340;28;20510;-74
2022/12/08 09:45:25;;;;;;;;;;;2.10;99.90;;;;;;5031918;28;20037;-73
2022/12/08 09:48:05;;;;;;;8.00;7.70;;;1.90;99.90;;;;;;5030597;28;19921;-74
2022/12/08 09:50:44;;;;;;;8.35;8.05;;;2.00;99.90;;;;;;5032256;28;20022;-73
2022/12/08 09:53:17;;;;;;;9.25;8.88;;;2.10;99.90;;;;;;5035410;28;20469;-73
2022/12/08 09:55:48;;;;;;;8.13;7.78;;;2.20;99.90;;;;;;5017635;28;20026;-73
2022/12/08 09:58:32;;;;;;;7.63;7.32;;;2.20;99.90;;;;;;5015006;28;20080;-73
2022/12/08 10:00:58;;;;;;;8.10;7.80;;;2.20;99.90;;;;;;5021054;28;20029;-74
2022/12/08 10:03:28;;;;;;;7.43;7.15;;;2.20;99.90;;;;;;5013173;28;20030;-73
2022/12/08 10:06:22;;;;;;;8.80;8.50;;;2.20;99.90;;;;;;5014189;28;20118;-73
2022/12/08 10:09:21;;;;;;;10.32;9.93;;;2.10;99.90;;;;;;5013122;28;20030;-73
2022/12/08 10:12:02;;;;;;;8.35;8.05;;;2.10;99.90;;;;;;4996768;28;20030;-73
2022/12/08 10:14:34;;;;;;;8.32;8.02;;;2.10;99.90;;;;;;5013915;28;20118;-73
2022/12/08 10:17:06;;;;;;;8.40;8.07;;;2.10;99.90;;;;;;5036985;22;20046;-73
2022/12/08 10:19:33;;;;;;;8.07;7.78;;;2.10;99.90;;;;;;5014488;28;20018;-73
2022/12/08 10:21:59;;;;;;;9.32;8.93;;;2.10;99.90;;;;;;5015007;28;20472;-73
2022/12/08 10:24:47;;;;;;;7.30;7.10;;;2.10;99.90;;;;;;5014989;28;20076;-73
2022/12/08 10:27:12;;;;;;;9.57;9.23;;;2.10;99.90;;;;;;5014200;28;20049;-73
2022/12/08 10:29:39;;;;;;;8.18;7.88;;;2.10;99.90;;;;;;5013715;28;20018;-73
2022/12/08 10:32:14;;;;;;;7.60;7.35;;;2.10;99.90;;;;;;5016691;28;20406;-73
2022/12/08 10:35:02;;;;;;;8.50;8.13;;;2.20;99.90;;;;;;5034617;28;20025;-73
2022/12/08 10:37:28;;;;;;;7.82;7.53;;;2.30;99.90;;;;;;5033724;28;20037;-73
2022/12/08 10:40:01;;;;;;;8.57;8.27;;;2.20;99.90;;;;;;5016787;28;20025;-73
2022/12/08 10:42:34;;;;;;;8.07;7.78;;;2.20;99.90;;;;;;5029865;28;20029;-73
2022/12/08 10:45:08;;;;;;;9.75;9.27;;;2.30;99.90;;;;;;5003301;28;20454;-73
2022/12/08 10:47:36;;;;;;;9.05;8.75;;;2.30;99.90;;;;;;5025879;28;20033;-73
2022/12/08 10:50:35;;;;;;;6.60;6.40;;;2.30;99.90;;;;;;5017699;28;20076;-73
2022/12/08 10:53:07;;;;;;;7.25;7.05;;;2.30;99.90;;;;;;4997114;28;20018;-73
2022/12/08 10:55:58;;;;;;;8.43;8.02;;;2.40;99.90;;;;;;5014245;28;20077;-73
2022/12/08 10:58:25;;;;;;;8.32;8.02;;;2.40;99.90;;;;;;5010642;28;20037;-73
2022/12/08 11:00:54;;;;;;;7.22;7.00;;;2.40;99.90;;;;;;4999587;28;20064;-73
2022/12/08 11:03:33;;;;;;;6.53;6.32;;;2.40;99.90;;;;;;5014050;28;20379;-73
2022/12/08 11:06:00;;;;;;;7.07;6.78;;;2.30;99.90;;;;;;4996685;28;20475;-73
2022/12/08 11:08:28;;;;;;;6.00;5.80;;;2.30;99.90;;;;;;5013610;28;20026;-73
2022/12/08 11:10:54;;;;;;;6.50;6.30;;;2.40;99.90;;;;;;5014311;28;20108;-73
2022/12/08 11:13:25;;;;;;;6.75;6.55;;;2.40;99.90;;;;;;5013966;28;20486;-73
2022/12/08 11:15:53;;;;;;;7.57;7.28;;;2.40;99.90;;;;;;5014342;28;20053;-73
2022/12/08 11:18:27;;;;;;;7.15;6.95;;;2.40;99.90;;;;;;5013998;28;20040;-73
2022/12/08 11:21:00;;;;;;;8.20;7.90;;;2.30;99.90;;;;;;4996515;28;20503;-73
2022/12/08 11:23:27;;;;;;;6.97;6.78;;;2.30;99.90;;;;;;5027428;28;20034;-73
2022/12/08 11:25:57;;;;;;;8.82;8.27;;;2.30;99.90;;;;;;5026970;28;20112;-73
2022/12/08 11:28:24;;;;;;;6.47;6.28;;;2.30;99.90;;;;;;5002543;28;20029;-73
2022/12/08 11:31:15;;;;;;;7.63;7.32;;;2.20;99.90;;;;;;5002777;28;20080;-73
2022/12/08 11:33:42;;;;;;;7.30;7.10;;;2.30;99.90;;;;;;5023476;28;20018;-73
2022/12/08 11:36:11;;;;;;;7.70;7.40;;;2.30;99.90;;;;;;5027099;28;20116;-73
2022/12/08 11:38:42;;;;;;;6.85;6.65;;;2.30;99.90;;;;;;5024366;28;20117;-73
2022/12/08 11:41:10;;;;;;;6.47;6.28;;;2.30;99.90;;;;;;5020296;28;20079;-73
2022/12/08 11:44:02;;;;;;;8.32;8.02;;;2.30;99.90;;;;;;5015716;28;20103;-73
2022/12/08 11:46:36;;;;;;;7.10;6.90;;;2.30;99.90;;;;;;5022763;28;20432;-72
2022/12/08 11:49:11;;;;;;;6.60;6.40;;;2.30;99.90;;;;;;5019575;28;20082;-73
2022/12/08 11:51:57;;;;;;;6.93;6.70;;;2.30;99.90;;;;;;5022081;28;20026;-73
2022/12/08 11:54:35;;;;;;;7.97;7.68;;;2.40;99.90;;;;;;5003411;28;20067;-74
2022/12/08 11:57:04;;;;;;;6.72;6.53;;;2.40;99.90;;;;;;5031052;28;20128;-74
2022/12/08 11:59:40;;;;;;;6.20;6.00;;;2.40;99.90;;;;;;5014984;28;20029;-73
2022/12/08 12:02:15;;;;;;;8.30;8.00;;;2.40;99.90;;;;;;5000404;28;20056;-73
2022/12/08 12:04:55;;;;;;;8.15;7.75;;;2.40;99.90;;;;;;5012221;28;20029;-73
2022/12/08 12:07:58;;;;;;;7.25;7.03;;;2.40;99.90;;;;;;5008951;28;20471;-73
2022/12/08 12:10:37;;;;;;;7.13;6.90;;;2.40;99.90;;;;;;4995488;28;20037;-73
2022/12/08 12:13:22;;;;;;;8.55;8.00;;;2.50;99.90;;;;;;5011437;28;20072;-73
2022/12/08 12:16:14;;;;;;;8.50;8.20;;;2.50;99.90;;;;;;5012353;28;20022;-73
2022/12/08 12:18:46;;;;;;;10.43;9.85;;;2.60;99.90;;;;;;5012693;28;20116;-73
2022/12/08 12:21:26;;;;;;;6.93;6.72;;;2.40;99.90;;;;;;4995580;28;20096;-73
2022/12/08 12:23:53;;;;;;;6.68;6.47;;;2.50;99.90;;;;;;5012983;28;20037;-74
2022/12/08 12:26:25;;;;;;;6.40;6.20;;;2.50;99.90;;;;;;5012915;28;20018;-73
2022/12/08 12:29:01;;;;;;;6.55;6.35;;;2.50;99.90;;;;;;5012731;28;20026;-73
2022/12/08 12:31:35;;;;;;;7.15;6.95;;;2.50;99.90;;;;;;5018407;28;20098;-73
2022/12/08 12:34:15;;;;;;;7.97;7.68;;;2.60;99.90;;;;;;5006014;28;20068;-73
2022/12/08 12:36:51;;;;;;;6.55;6.35;;;2.70;99.90;;;;;;5009895;28;20026;-73
2022/12/08 12:39:21;;;;;;;8.02;7.72;;;2.70;99.90;;;;;;5012651;28;20026;-73
2022/12/08 12:41:54;;;;;;;6.18;5.97;;;2.70;99.90;;;;;;5012696;28;20079;-73
2022/12/08 12:44:39;;;;;;;6.95;6.75;;;2.70;99.90;;;;;;5012610;28;20022;-73
2022/12/08 12:47:10;;;;;;;7.10;6.90;;;2.70;99.90;;;;;;5012791;28;20566;-73
2022/12/08 12:49:39;;;;;;;6.82;6.63;;;2.70;99.90;;;;;;5000322;28;20041;-73
2022/12/08 12:52:17;;;;;;;6.82;6.63;;;2.70;99.90;;;;;;5026617;28;20101;-73
2022/12/08 12:54:49;;;;;;;6.95;6.65;;;2.70;99.90;;;;;;5005213;28;20124;-73
2022/12/08 12:57:17;;;;;;;7.82;7.53;;;2.60;99.90;;;;;;5012030;28;20022;-73
2022/12/08 12:59:51;;;;;;;6.82;6.22;;;2.60;99.90;;;;;;4994776;28;20034;-73
2022/12/08 13:02:38;;;;;;;7.90;7.60;;;2.60;99.90;;;;;;4994685;28;20030;-75
2022/12/08 13:05:14;;;;;;;6.72;6.53;;;2.60;99.90;;;;;;5012239;28;20022;-73
2022/12/08 13:07:45;;;;;;;;;;;2.60;99.90;;;;;;5012596;28;20434;-73
2022/12/08 13:10:21;;;;;;;7.18;6.97;;;2.60;99.90;;;;;;5015532;28;19912;-73
2022/12/08 13:13:16;;;;;;;7.00;6.80;;;2.60;99.90;;;;;;5001703;28;20029;-73
2022/12/08 13:15:45;;;;;;;7.28;7.05;;;2.70;99.90;;;;;;5000444;28;20053;-73